createdAt,value
2018-08-22T00:01:17.417Z,14.50
2018-08-22T00:03:52.326Z,14.50
2018-08-22T00:06:27.403Z,14.50
2018-08-22T00:09:02.371Z,14.50
2018-08-22T00:11:37.243Z,14.60
2018-08-22T00:14:12.267Z,14.60
2018-08-22T00:16:46.983Z,14.60
2018-08-22T00:19:21.701Z,14.60
2018-08-22T00:21:56.563Z,14.60
2018-08-22T00:24:31.466Z,14.50
2018-08-22T00:27:06.328Z,14.50
2018-08-22T00:29:41.180Z,14.50
2018-08-22T00:32:16.154Z,14.60
2018-08-22T00:34:51.078Z,14.60
2018-08-22T00:37:26.024Z,14.50
2018-08-22T00:40:01.062Z,14.50
2018-08-22T00:42:35.922Z,14.50
2018-08-22T00:45:10.739Z,14.50
2018-08-22T00:47:45.527Z,14.40
2018-08-22T00:50:20.281Z,14.40
2018-08-22T00:52:54.999Z,14.30
2018-08-22T00:55:29.630Z,14.20
2018-08-22T00:58:04.347Z,14.20
2018-08-22T01:00:39.064Z,14.20
2018-08-22T01:03:13.870Z,14.20
2018-08-22T01:05:48.602Z,14.10
2018-08-22T01:08:23.402Z,14.20
2018-08-22T01:10:58.426Z,14.10
2018-08-22T01:13:33.643Z,14.20
2018-08-22T01:16:08.615Z,14.10
2018-08-22T01:18:43.556Z,14.00
2018-08-22T01:21:18.420Z,14.00
2018-08-22T01:23:53.208Z,14.00
2018-08-22T01:26:28.066Z,13.90
2018-08-22T01:29:02.887Z,13.90
2018-08-22T01:31:37.725Z,13.90
2018-08-22T01:34:12.454Z,13.90
2018-08-22T01:36:47.292Z,13.90
2018-08-22T01:39:22.221Z,13.90
2018-08-22T01:41:57.302Z,14.00
2018-08-22T01:44:32.055Z,13.90
2018-08-22T01:47:06.795Z,13.90
2018-08-22T01:49:41.780Z,13.80
2018-08-22T01:52:16.722Z,13.90
2018-08-22T01:54:51.560Z,13.80
2018-08-22T01:57:26.407Z,13.80
2018-08-22T02:00:01.624Z,13.80
2018-08-22T02:02:36.800Z,13.70
2018-08-22T02:05:11.752Z,13.70
2018-08-22T02:07:46.563Z,13.80
2018-08-22T02:10:21.354Z,13.90
2018-08-22T02:12:56.335Z,13.90
2018-08-22T02:15:31.195Z,13.80
2018-08-22T02:18:06.132Z,13.80
2018-08-22T02:20:40.876Z,13.70
2018-08-22T02:23:15.863Z,13.70
2018-08-22T02:25:50.611Z,13.70
2018-08-22T02:28:25.340Z,13.70
2018-08-22T02:31:00.305Z,13.60
2018-08-22T02:33:35.468Z,13.60
2018-08-22T02:36:10.532Z,13.60
2018-08-22T02:38:45.539Z,13.60
2018-08-22T02:41:20.167Z,13.60
2018-08-22T02:43:55.359Z,13.60
2018-08-22T02:46:30.283Z,13.60
2018-08-22T02:49:05.153Z,13.60
2018-08-22T02:51:39.913Z,13.50
2018-08-22T02:54:14.622Z,13.50
2018-08-22T02:56:49.513Z,13.50
2018-08-22T02:59:24.487Z,13.50
2018-08-22T03:01:59.408Z,13.40
2018-08-22T03:04:34.468Z,13.40
2018-08-22T03:07:09.379Z,13.40
2018-08-22T03:09:44.196Z,13.40
2018-08-22T03:12:19.136Z,13.40
2018-08-22T03:14:53.925Z,13.40
2018-08-22T03:17:28.903Z,13.40
2018-08-22T03:20:03.783Z,13.40
2018-08-22T03:22:38.637Z,13.40
2018-08-22T03:25:13.454Z,13.40
2018-08-22T03:27:48.543Z,13.40
2018-08-22T03:30:23.276Z,13.40
2018-08-22T03:32:58.250Z,13.40
2018-08-22T03:35:33.156Z,13.50
2018-08-22T03:38:07.992Z,13.40
2018-08-22T03:40:42.731Z,13.40
2018-08-22T03:43:17.355Z,13.40
2018-08-22T03:45:52.044Z,13.40
2018-08-22T03:48:26.784Z,13.40
2018-08-22T03:51:01.691Z,13.40
2018-08-22T03:53:36.896Z,13.30
2018-08-22T03:56:11.807Z,13.40
2018-08-22T03:58:46.623Z,13.40
2018-08-22T04:01:21.460Z,13.40
2018-08-22T04:03:56.250Z,13.40
2018-08-22T04:06:30.972Z,13.30
2018-08-22T04:09:07.142Z,13.40
2018-08-22T04:11:41.848Z,13.40
2018-08-22T04:14:16.675Z,13.40
2018-08-22T04:16:51.512Z,13.40
2018-08-22T04:19:26.404Z,13.40
2018-08-22T04:22:01.289Z,13.50
2018-08-22T04:24:36.120Z,13.40
2018-08-22T04:27:11.305Z,13.50
2018-08-22T04:29:46.419Z,13.40
2018-08-22T04:32:21.281Z,13.50
2018-08-22T04:34:56.203Z,13.40
2018-08-22T04:37:31.057Z,13.40
2018-08-22T04:40:06.011Z,13.50
2018-08-22T04:42:40.840Z,13.40
2018-08-22T04:45:15.468Z,13.50
2018-08-22T04:47:50.366Z,13.60
2018-08-22T04:50:25.371Z,13.60
2018-08-22T04:53:00.316Z,13.60
2018-08-22T04:55:34.950Z,13.70
2018-08-22T04:58:09.900Z,13.80
2018-08-22T05:00:44.748Z,13.80
2018-08-22T05:03:19.560Z,13.90
2018-08-22T05:05:54.306Z,13.90
2018-08-22T05:08:29.039Z,13.90
2018-08-22T05:11:03.830Z,14.00
2018-08-22T05:13:38.702Z,14.00
2018-08-22T05:16:13.575Z,14.10
2018-08-22T05:18:48.879Z,14.20
2018-08-22T05:21:23.715Z,14.20
2018-08-22T05:23:58.539Z,14.20
2018-08-22T05:26:33.674Z,14.30
2018-08-22T05:29:08.283Z,14.40
2018-08-22T05:31:42.861Z,14.40
2018-08-22T05:34:17.920Z,14.50
2018-08-22T05:36:52.861Z,14.60
2018-08-22T05:39:28.004Z,14.70
2018-08-22T05:42:03.119Z,14.80
2018-08-22T05:44:38.191Z,14.90
2018-08-22T05:47:13.024Z,14.90
2018-08-22T05:49:47.895Z,15.00
2018-08-22T05:52:22.731Z,15.10
2018-08-22T05:54:57.468Z,15.10
2018-08-22T05:57:32.288Z,15.30
2018-08-22T06:00:07.344Z,15.40
2018-08-22T06:02:42.419Z,15.70
2018-08-22T06:05:17.452Z,16.00
2018-08-22T06:07:52.305Z,16.40
2018-08-22T06:10:27.220Z,16.80
2018-08-22T06:13:02.056Z,17.10
2018-08-22T06:15:36.984Z,17.50
2018-08-22T06:18:11.690Z,17.70
2018-08-22T06:20:46.460Z,17.80
2018-08-22T06:23:21.183Z,18.00
2018-08-22T06:25:55.844Z,18.20
2018-08-22T06:28:30.843Z,18.30
2018-08-22T06:31:05.616Z,18.60
2018-08-22T06:33:40.385Z,18.40
2018-08-22T06:36:15.482Z,18.50
2018-08-22T06:38:50.443Z,18.80
2018-08-22T06:41:25.293Z,18.80
2018-08-22T06:44:00.393Z,18.70
2018-08-22T06:46:35.164Z,18.70
2018-08-22T06:49:10.368Z,18.60
2018-08-22T06:51:45.419Z,18.50
2018-08-22T06:54:20.170Z,18.50
2018-08-22T06:56:55.036Z,18.50
2018-08-22T06:59:30.111Z,18.50
2018-08-22T07:02:04.940Z,18.60
2018-08-22T07:04:39.664Z,18.60
2018-08-22T07:07:14.348Z,18.60
2018-08-22T07:09:49.061Z,18.70
2018-08-22T07:12:24.020Z,18.80
2018-08-22T07:14:58.743Z,19.00
2018-08-22T07:17:33.512Z,19.10
2018-08-22T07:20:08.368Z,19.10
2018-08-22T07:22:47.518Z,19.20
2018-08-22T07:25:23.775Z,19.30
2018-08-22T07:28:03.804Z,19.40
2018-08-22T07:30:41.600Z,19.50
2018-08-22T07:33:16.668Z,19.60
2018-08-22T07:35:51.587Z,19.60
2018-08-22T07:38:26.705Z,19.60
2018-08-22T07:41:01.668Z,19.70
2018-08-22T07:43:36.307Z,19.90
2018-08-22T07:46:11.173Z,19.90
2018-08-22T07:48:45.889Z,20.00
2018-08-22T07:51:20.948Z,20.00
2018-08-22T07:53:56.070Z,20.10
2018-08-22T07:56:30.960Z,20.30
2018-08-22T07:59:14.298Z,20.40
2018-08-22T08:01:49.238Z,20.50
2018-08-22T08:04:24.207Z,20.60
2018-08-22T08:06:59.079Z,20.60
2018-08-22T08:09:33.935Z,20.70
2018-08-22T08:12:08.871Z,20.70
2018-08-22T08:14:47.891Z,20.80
2018-08-22T08:17:22.631Z,21.10
2018-08-22T08:19:57.374Z,21.10
2018-08-22T08:22:32.564Z,21.10
2018-08-22T08:25:07.456Z,21.20
2018-08-22T08:27:42.453Z,21.30
2018-08-22T08:30:17.405Z,21.40
2018-08-22T08:32:52.404Z,21.50
2018-08-22T08:35:27.360Z,21.70
2018-08-22T08:38:02.244Z,21.80
2018-08-22T08:40:37.065Z,21.90
2018-08-22T08:43:11.964Z,22.00
2018-08-22T08:45:47.040Z,22.00
2018-08-22T08:48:21.923Z,22.10
2018-08-22T08:50:56.764Z,22.10
2018-08-22T08:53:31.999Z,22.20
2018-08-22T08:56:06.759Z,22.30
2018-08-22T08:58:41.826Z,22.30
2018-08-22T09:01:16.764Z,22.50
2018-08-22T09:03:51.903Z,22.60
2018-08-22T09:06:26.946Z,22.60
2018-08-22T09:09:01.617Z,22.60
2018-08-22T09:11:40.372Z,22.60
2018-08-22T09:14:15.467Z,22.70
2018-08-22T09:16:50.281Z,22.90
2018-08-22T09:19:25.160Z,23.00
2018-08-22T09:21:59.912Z,23.00
2018-08-22T09:24:34.914Z,23.00
2018-08-22T09:27:09.935Z,23.20
2018-08-22T09:29:45.036Z,23.20
2018-08-22T09:32:19.664Z,23.30
2018-08-22T09:34:54.441Z,23.30
2018-08-22T09:37:29.211Z,23.40
2018-08-22T09:40:04.245Z,23.40
2018-08-22T09:42:39.197Z,23.70
2018-08-22T09:45:13.845Z,23.70
2018-08-22T09:47:48.744Z,23.80
2018-08-22T09:50:23.463Z,23.90
2018-08-22T09:52:58.351Z,23.90
2018-08-22T09:55:33.212Z,24.00
2018-08-22T09:58:07.887Z,24.00
2018-08-22T10:00:47.885Z,24.10
2018-08-22T10:03:22.806Z,24.10
2018-08-22T10:05:57.901Z,24.20
2018-08-22T10:08:32.927Z,24.10
2018-08-22T10:11:08.285Z,24.20
2018-08-22T10:13:43.209Z,24.40
2018-08-22T10:16:18.169Z,24.50
2018-08-22T10:18:53.612Z,24.50
2018-08-22T10:21:28.292Z,24.50
2018-08-22T10:24:03.007Z,24.50
2018-08-22T10:26:37.974Z,24.70
2018-08-22T10:29:12.968Z,24.70
2018-08-22T10:31:47.851Z,24.60
2018-08-22T10:34:22.648Z,24.80
2018-08-22T10:36:57.511Z,25.00
2018-08-22T10:39:32.400Z,24.80
2018-08-22T10:42:07.242Z,24.90
2018-08-22T10:44:41.933Z,25.00
2018-08-22T10:47:16.756Z,25.20
2018-08-22T10:49:51.588Z,25.20
2018-08-22T10:52:26.475Z,25.20
2018-08-22T10:55:01.280Z,25.40
2018-08-22T10:57:36.203Z,25.60
2018-08-22T11:00:10.988Z,25.60
2018-08-22T11:02:45.872Z,25.60
2018-08-22T11:05:20.620Z,25.50
2018-08-22T11:07:55.249Z,25.50
2018-08-22T11:10:30.082Z,25.60
2018-08-22T11:13:05.417Z,25.60
2018-08-22T11:15:40.264Z,25.70
2018-08-22T11:18:16.559Z,25.90
2018-08-22T11:20:52.080Z,25.80
2018-08-22T11:23:38.392Z,26.00
2018-08-22T11:26:24.186Z,26.20
2018-08-22T11:29:10.070Z,26.30
2018-08-22T11:31:55.844Z,26.40
2018-08-22T11:34:41.740Z,26.40
2018-08-22T11:37:17.463Z,26.30
2018-08-22T11:39:52.699Z,26.20
2018-08-22T11:42:27.437Z,26.20
2018-08-22T11:45:02.561Z,26.30
2018-08-22T11:47:37.370Z,26.40
2018-08-22T11:50:12.208Z,26.40
2018-08-22T11:52:49.160Z,26.50
2018-08-22T11:55:24.030Z,26.50
2018-08-22T11:57:59.234Z,26.70
2018-08-22T12:00:34.362Z,26.70
2018-08-22T12:03:09.161Z,26.70
2018-08-22T12:05:44.079Z,26.70
2018-08-22T12:08:18.990Z,26.80
2018-08-22T12:10:54.609Z,27.00
2018-08-22T12:13:29.359Z,27.10
2018-08-22T12:16:04.246Z,27.10
2018-08-22T12:18:39.416Z,27.30
2018-08-22T12:21:14.135Z,27.20
2018-08-22T12:23:48.760Z,27.10
2018-08-22T12:26:23.770Z,27.20
2018-08-22T12:28:58.764Z,27.50
2018-08-22T12:31:34.180Z,27.60
2018-08-22T12:34:09.280Z,27.50
2018-08-22T12:36:43.916Z,27.80
2018-08-22T12:39:18.962Z,28.20
2018-08-22T12:41:53.817Z,28.80
2018-08-22T12:44:28.655Z,29.60
2018-08-22T12:47:03.708Z,30.20
2018-08-22T12:49:38.833Z,30.60
2018-08-22T12:52:13.543Z,30.40
2018-08-22T12:54:48.826Z,30.50
2018-08-22T12:57:24.033Z,30.90
2018-08-22T12:59:58.823Z,31.10
2018-08-22T13:02:33.687Z,31.60
2018-08-22T13:05:08.855Z,31.50
2018-08-22T13:07:43.637Z,32.10
2018-08-22T13:10:18.884Z,31.50
2018-08-22T13:12:53.781Z,32.00
2018-08-22T13:15:28.849Z,31.90
2018-08-22T13:18:03.852Z,32.50
2018-08-22T13:20:38.967Z,32.40
2018-08-22T13:23:13.968Z,31.70
2018-08-22T13:25:48.959Z,31.70
2018-08-22T13:28:24.002Z,31.70
2018-08-22T13:30:59.081Z,31.50
2018-08-22T13:33:34.172Z,31.80
2018-08-22T13:36:09.156Z,32.00
2018-08-22T13:38:44.259Z,32.00
2018-08-22T13:41:19.482Z,31.50
2018-08-22T13:43:54.532Z,31.90
2018-08-22T13:46:29.645Z,32.30
2018-08-22T13:49:04.400Z,32.30
2018-08-22T13:51:39.361Z,31.90
2018-08-22T13:54:14.560Z,31.20
2018-08-22T13:56:49.453Z,30.70
2018-08-22T13:59:24.250Z,30.50
2018-08-22T14:01:59.369Z,30.00
2018-08-22T14:04:34.234Z,29.50
2018-08-22T14:07:09.165Z,29.10
2018-08-22T14:09:44.209Z,28.60
2018-08-22T14:12:19.095Z,28.50
2018-08-22T14:14:53.935Z,28.30
2018-08-22T14:17:28.739Z,28.00
2018-08-22T14:20:03.569Z,27.80
2018-08-22T14:22:38.340Z,27.80
2018-08-22T14:25:13.217Z,28.10
2018-08-22T14:27:48.107Z,28.10
2018-08-22T14:30:23.138Z,28.20
2018-08-22T14:32:58.044Z,28.00
2018-08-22T14:35:32.985Z,27.90
2018-08-22T14:38:07.746Z,28.00
2018-08-22T14:40:42.607Z,27.90
2018-08-22T14:43:17.436Z,27.80
2018-08-22T14:45:52.319Z,27.70
2018-08-22T14:48:27.207Z,27.70
2018-08-22T14:51:02.174Z,27.70
2018-08-22T14:53:37.174Z,27.70
2018-08-22T14:56:12.142Z,27.70
2018-08-22T14:58:46.968Z,27.60
2018-08-22T15:01:21.707Z,27.70
2018-08-22T15:03:56.926Z,27.80
2018-08-22T15:06:32.032Z,27.90
2018-08-22T15:09:12.594Z,27.70
2018-08-22T15:11:47.623Z,27.60
2018-08-22T15:14:22.697Z,27.40
2018-08-22T15:16:57.746Z,27.20
2018-08-22T15:19:32.840Z,27.20
2018-08-22T15:22:08.033Z,27.40
2018-08-22T15:24:43.023Z,27.40
2018-08-22T15:27:18.132Z,27.40
2018-08-22T15:29:53.223Z,27.50
2018-08-22T15:32:28.191Z,27.40
2018-08-22T15:35:03.099Z,27.30
2018-08-22T15:37:37.986Z,27.20
2018-08-22T15:40:12.809Z,27.20
2018-08-22T15:42:47.755Z,27.30
2018-08-22T15:45:22.928Z,27.20
2018-08-22T15:47:57.672Z,27.20
2018-08-22T15:50:33.275Z,27.20
2018-08-22T15:53:08.353Z,27.20
2018-08-22T15:55:43.449Z,27.10
2018-08-22T15:58:18.448Z,27.10
2018-08-22T16:00:54.318Z,27.10
2018-08-22T16:03:29.427Z,27.10
2018-08-22T16:06:04.311Z,27.00
2018-08-22T16:08:39.083Z,27.00
2018-08-22T16:11:14.097Z,27.10
2018-08-22T16:13:49.464Z,27.00
2018-08-22T16:16:24.652Z,26.90
2018-08-22T16:19:00.027Z,26.90
2018-08-22T16:21:37.335Z,26.90
2018-08-22T16:24:12.264Z,27.00
2018-08-22T16:26:46.948Z,27.00
2018-08-22T16:29:21.652Z,26.90
2018-08-22T16:31:56.687Z,26.80
2018-08-22T16:34:31.576Z,26.80
2018-08-22T16:37:07.442Z,26.70
2018-08-22T16:39:44.487Z,26.70
2018-08-22T16:42:24.091Z,26.70
2018-08-22T16:44:59.528Z,26.70
2018-08-22T16:47:35.985Z,26.60
2018-08-22T16:50:11.128Z,26.60
2018-08-22T16:52:46.529Z,26.50
2018-08-22T16:55:22.812Z,26.40
2018-08-22T16:57:57.992Z,26.40
2018-08-22T17:00:38.512Z,26.40
2018-08-22T17:03:13.711Z,26.30
2018-08-22T17:05:48.941Z,26.20
2018-08-22T17:08:24.352Z,26.20
2018-08-22T17:11:01.638Z,26.10
2018-08-22T17:13:50.268Z,26.00
2018-08-22T17:16:25.888Z,25.90
2018-08-22T17:19:00.645Z,25.90
2018-08-22T17:21:35.817Z,25.80
2018-08-22T17:24:10.660Z,25.70
2018-08-22T17:26:45.525Z,25.70
2018-08-22T17:29:20.436Z,25.50
2018-08-22T17:32:05.149Z,25.30
2018-08-22T17:34:40.125Z,25.20
2018-08-22T17:37:15.216Z,24.90
2018-08-22T17:39:50.051Z,24.70
2018-08-22T17:42:25.240Z,24.50
2018-08-22T17:45:00.135Z,24.40
2018-08-22T17:47:35.229Z,24.10
2018-08-22T17:50:10.429Z,24.00
2018-08-22T17:52:45.316Z,23.80
2018-08-22T17:55:20.185Z,23.60
2018-08-22T17:57:55.045Z,23.40
2018-08-22T18:00:32.653Z,23.30
2018-08-22T18:03:07.758Z,23.10
2018-08-22T18:05:42.760Z,22.90
2018-08-22T18:08:17.767Z,22.80
2018-08-22T18:10:52.784Z,22.60
2018-08-22T18:13:28.461Z,22.50
2018-08-22T18:16:04.079Z,22.30
2018-08-22T18:18:39.293Z,22.10
2018-08-22T18:21:14.379Z,22.00
2018-08-22T18:23:53.236Z,21.90
2018-08-22T18:26:28.205Z,21.80
2018-08-22T18:29:03.087Z,21.70
2018-08-22T18:31:38.729Z,21.60
2018-08-22T18:34:13.485Z,21.50
2018-08-22T18:36:48.389Z,21.40
2018-08-22T18:39:23.372Z,21.20
2018-08-22T18:41:58.436Z,21.10
2018-08-22T18:44:33.615Z,21.00
2018-08-22T18:47:08.760Z,21.00
2018-08-22T18:49:44.164Z,20.80
2018-08-22T18:52:19.172Z,20.70
2018-08-22T18:54:54.337Z,20.60
2018-08-22T18:57:30.031Z,20.50
2018-08-22T19:00:07.764Z,20.50
2018-08-22T19:02:43.039Z,20.40
2018-08-22T19:05:25.993Z,20.30
2018-08-22T19:08:17.385Z,20.30
2018-08-22T19:10:52.345Z,20.20
2018-08-22T19:13:27.581Z,20.20
2018-08-22T19:16:05.586Z,20.10
2018-08-22T19:18:40.588Z,20.00
2018-08-22T19:21:15.724Z,20.00
2018-08-22T19:23:55.629Z,19.90
2018-08-22T19:26:30.797Z,19.80
2018-08-22T19:29:06.595Z,19.70
2018-08-22T19:31:47.610Z,19.70
2018-08-22T19:34:22.612Z,19.60
2018-08-22T19:36:57.526Z,19.50
2018-08-22T19:39:32.408Z,19.40
2018-08-22T19:42:07.149Z,19.60
2018-08-22T19:44:42.021Z,19.60
2018-08-22T19:47:17.076Z,19.50
2018-08-22T19:49:52.175Z,19.40
2018-08-22T19:52:27.039Z,19.40
2018-08-22T19:55:05.905Z,19.40
2018-08-22T19:57:42.188Z,19.30
2018-08-22T20:00:17.214Z,19.30
2018-08-22T20:02:51.967Z,19.40
2018-08-22T20:05:27.263Z,19.40
2018-08-22T20:08:02.033Z,19.40
2018-08-22T20:10:36.932Z,19.30
2018-08-22T20:13:11.910Z,19.30
2018-08-22T20:15:46.861Z,19.20
2018-08-22T20:18:22.103Z,19.20
2018-08-22T20:20:57.077Z,19.10
2018-08-22T20:23:32.280Z,19.10
2018-08-22T20:26:07.332Z,19.10
2018-08-22T20:28:46.470Z,19.00
2018-08-22T20:31:21.417Z,18.90
2018-08-22T20:34:08.309Z,18.90
2018-08-22T20:36:46.896Z,18.80
2018-08-22T20:39:21.928Z,18.80
2018-08-22T20:42:00.551Z,18.70
2018-08-22T20:44:35.746Z,18.80
2018-08-22T20:47:10.923Z,18.70
2018-08-22T20:49:46.376Z,18.70
2018-08-22T20:52:21.360Z,18.70
2018-08-22T20:55:01.419Z,18.60
2018-08-22T20:57:36.353Z,18.40
2018-08-22T21:00:11.253Z,18.40
2018-08-22T21:02:46.453Z,18.30
2018-08-22T21:05:21.368Z,18.20
2018-08-22T21:07:56.415Z,18.10
2018-08-22T21:10:31.507Z,18.10
2018-08-22T21:13:13.517Z,18.00
2018-08-22T21:15:48.528Z,17.90
2018-08-22T21:18:23.512Z,17.90
2018-08-22T21:20:58.234Z,17.90
2018-08-22T21:23:33.067Z,17.80
2018-08-22T21:26:07.788Z,17.70
2018-08-22T21:28:43.225Z,17.70
2018-08-22T21:31:17.851Z,17.70
2018-08-22T21:33:52.844Z,17.60
2018-08-22T21:36:27.539Z,17.60
2018-08-22T21:39:04.080Z,17.50
2018-08-22T21:41:39.147Z,17.50
2018-08-22T21:44:16.372Z,17.40
2018-08-22T21:46:58.364Z,17.40
2018-08-22T21:49:33.353Z,17.30
2018-08-22T21:52:08.548Z,17.30
2018-08-22T21:54:43.530Z,17.20
2018-08-22T21:57:18.740Z,17.10
2018-08-22T21:59:58.779Z,17.10
2018-08-22T22:02:33.978Z,17.10
2018-08-22T22:05:09.065Z,17.10
2018-08-22T22:07:44.240Z,17.00
2018-08-22T22:10:19.576Z,17.00
2018-08-22T22:12:54.683Z,16.90
2018-08-22T22:15:34.712Z,17.00
2018-08-22T22:18:10.007Z,17.00
2018-08-22T22:20:49.081Z,16.90
2018-08-22T22:23:24.142Z,16.90
2018-08-22T22:25:59.744Z,16.90
2018-08-22T22:28:39.336Z,16.70
2018-08-22T22:31:17.285Z,16.60
2018-08-22T22:34:07.397Z,16.60
2018-08-22T22:36:42.140Z,16.60
2018-08-22T22:39:34.024Z,16.60
2018-08-22T22:42:14.965Z,16.60
2018-08-22T22:44:50.938Z,16.70
2018-08-22T22:47:27.132Z,16.90
2018-08-22T22:50:02.864Z,17.20
2018-08-22T22:52:39.612Z,17.30
2018-08-22T22:55:15.040Z,17.20
2018-08-22T22:57:50.242Z,17.10
2018-08-22T23:00:25.627Z,17.00
2018-08-22T23:03:06.456Z,16.90
2018-08-22T23:05:41.571Z,16.90
2018-08-22T23:08:16.828Z,16.90
2018-08-22T23:10:51.901Z,16.80
2018-08-22T23:13:28.374Z,16.80
2018-08-22T23:16:03.340Z,16.80
2018-08-22T23:18:38.379Z,16.70
2018-08-22T23:21:13.242Z,16.60
2018-08-22T23:23:48.041Z,16.60
2018-08-22T23:26:22.948Z,16.60
2018-08-22T23:28:57.789Z,16.50
2018-08-22T23:31:32.509Z,16.60
2018-08-22T23:34:07.484Z,16.40
2018-08-22T23:36:46.455Z,16.30
2018-08-22T23:39:33.051Z,16.20
2018-08-22T23:42:08.980Z,16.20
2018-08-22T23:44:44.923Z,16.20
2018-08-22T23:47:19.796Z,16.20
2018-08-22T23:49:54.589Z,16.40
2018-08-22T23:52:34.480Z,16.40
2018-08-22T23:55:09.624Z,16.40
2018-08-22T23:57:44.488Z,16.40
